Time;durP1;ratioP1;P1;durP2;ratioP2;P2;SDS_P1;SDS_P2;PMS_P1;PMS_P2;Temp;Humidity;BMP_temperature;BMP_pressure;BME280_temperature;BME280_humidity;BME280_pressure;Samples;Min_cycle;Max_cycle;Signal;HPM_P1;HPM_P2
2022/02/11 00:12:30;;;;;;;1999.90;999.90;;;;;;;6.99;74.32;101410.19;15621824;28;20128;-61
2022/02/11 00:20:05;;;;;;;1999.90;999.90;;;;;;;6.98;74.38;101414.06;15618472;28;20076;-61
2022/02/11 00:28:21;;;;;;;1999.90;999.90;;;;;;;6.91;75.25;101418.00;15602506;28;20522;-61
2022/02/11 00:35:53;;;;;;;1999.90;999.90;;;;;;;6.83;75.53;101412.25;15618561;28;20037;-61
2022/02/11 01:07:53;;;;;;;1999.90;999.90;;;;;;;6.90;75.28;101412.75;15594381;28;20053;-61
2022/02/11 01:16:11;;;;;;;1999.90;999.90;;;;;;;6.66;76.21;101398.81;15591529;28;20049;-61
2022/02/11 01:24:29;;;;;;;1999.90;999.90;;;;;;;6.88;76.69;101395.59;15612628;28;20053;-63
2022/02/11 01:56:59;;;;;;;1999.90;999.90;;;;;;;7.03;75.29;101369.63;15531662;28;20041;-59
2022/02/11 02:13:19;;;;;;;1999.90;999.90;;;;;;;7.04;75.31;101355.44;15615890;28;20506;-62
2022/02/11 02:21:51;;;;;;;1999.90;999.90;;;;;;;7.14;75.31;101346.19;15614922;28;20076;-63
2022/02/11 02:37:32;;;;;;;1999.90;999.90;;;;;;;7.28;74.33;101336.00;15603306;28;20089;-61
2022/02/11 03:49:55;;;;;;;1999.90;999.90;;;;;;;7.07;75.13;101320.72;15620960;28;20410;-61
2022/02/11 03:57:54;;;;;;;1999.90;999.90;;;;;;;6.95;75.94;101338.59;15603804;28;20085;-61
2022/02/11 04:22:08;;;;;;;1999.90;999.90;;;;;;;7.02;76.20;101331.91;15605008;28;20498;-61
2022/02/11 05:01:57;;;;;;;1999.90;999.90;;;;;;;7.12;75.22;101342.88;15600646;28;20168;-61
2022/02/11 05:09:29;;;;;;;;;;;;;;;7.23;74.89;101339.69;15619128;28;20465;-61
2022/02/11 05:17:02;;;;;;;1999.90;999.90;;;;;;;7.06;75.23;101350.44;15619263;28;20012;-63
2022/02/11 05:24:34;;;;;;;;;;;;;;;7.12;75.46;101352.03;15625555;28;20103;-60
2022/02/11 05:32:47;;;;;;;1999.90;999.90;;;;;;;7.05;75.42;101354.31;15615657;28;20373;-61
2022/02/11 05:41:05;;;;;;;;;;;;;;;;;;;;;
2022/02/11 05:48:40;;;;;;;1999.90;999.90;;;;;;;6.92;76.26;101341.97;15590090;28;20136;-61
2022/02/11 05:56:12;;;;;;;1999.90;999.90;;;;;;;6.79;76.13;101350.19;15589721;28;20041;-61
2022/02/11 06:03:49;;;;;;;1999.90;999.90;;;;;;;6.93;75.67;101359.44;15584200;28;20064;-60
2022/02/11 06:11:21;;;;;;;1999.90;999.90;;;;;;;6.89;75.75;101372.25;15596563;28;20104;-62
2022/02/11 06:18:55;;;;;;;1999.90;999.90;;;;;;;6.98;75.34;101375.22;15579985;28;20056;-64
2022/02/11 06:26:27;;;;;;;;;;;;;;;6.96;75.08;101397.72;15670727;22;20050;-60
2022/02/11 06:34:00;;;;;;;1999.90;999.90;;;;;;;6.78;75.02;101393.72;15731335;28;20023;-60
2022/02/11 06:41:33;;;;;;;1999.90;999.90;;;;;;;6.93;74.81;101403.84;15743818;28;20125;-59
2022/02/11 06:49:07;;;;;;;1999.90;999.90;;;;;;;6.99;74.69;101411.00;15747888;28;20098;-60
2022/02/11 06:56:39;;;;;;;1999.90;999.90;;;;;;;6.62;75.09;101414.38;15725450;28;20044;-60
2022/02/11 07:04:12;;;;;;;1999.90;999.90;;;;;;;6.70;74.60;101410.16;15725360;28;20080;-57
2022/02/11 07:11:44;;;;;;;;;;;;;;;6.94;73.45;101420.19;15742404;28;20509;-59
2022/02/11 07:19:17;;;;;;;1999.90;999.90;;;;;;;6.74;73.77;101437.03;15740375;28;20020;-56
2022/02/11 07:26:49;;;;;;;1999.90;999.90;;;;;;;6.62;73.99;101434.63;15741365;28;20064;-62
2022/02/11 07:34:26;;;;;;;1999.90;999.90;;;;;;;6.73;73.33;101434.53;15686420;28;20041;-62
2022/02/11 07:43:04;;;;;;;;;;;;;;;;;;;;;
2022/02/11 07:50:44;;;;;;;1999.90;999.90;;;;;;;6.89;72.60;101453.56;15732443;28;20044;-58
2022/02/11 08:06:19;;;;;;;1999.90;999.90;;;;;;;5.49;75.74;101482.53;15765096;28;20485;-53
2022/02/11 08:13:51;;;;;;;1999.90;999.90;;;;;;;5.92;75.21;101494.06;15783312;28;20052;-56
2022/02/11 08:21:25;;;;;;;1999.90;999.90;;;;;;;6.04;74.53;101505.63;15763210;28;20462;-58
2022/02/11 08:28:58;;;;;;;1999.90;999.90;;;;;;;5.91;75.38;101512.63;15725559;28;20083;-59
2022/02/11 08:36:32;;;;;;;1999.90;999.90;;;;;;;6.19;74.46;101521.41;15676209;28;20129;-61
2022/02/11 08:44:05;;;;;;;1999.90;999.90;;;;;;;6.17;74.42;101524.44;15677353;28;20094;-61
2022/02/11 08:51:38;;;;;;;1999.90;999.90;;;;;;;6.33;73.80;101539.88;15674432;28;20056;-61
2022/02/11 08:59:10;;;;;;;1999.90;999.90;;;;;;;6.28;73.28;101561.25;15675954;28;20064;-62
2022/02/11 09:06:46;;;;;;;1999.90;999.90;;;;;;;6.59;73.15;101553.63;15676161;28;20141;-63
2022/02/11 09:14:18;;;;;;;1999.90;999.90;;;;;;;8.62;67.63;101553.59;15675704;28;20076;-61
2022/02/11 09:21:52;;;;;;;1999.90;999.90;;;;;;;10.02;64.05;101559.03;15673529;28;20057;-60
2022/02/11 09:29:24;;;;;;;1999.90;999.90;;;;;;;10.36;61.36;101564.22;15687298;28;20108;-60
2022/02/11 09:36:57;;;;;;;1999.90;999.90;;;;;;;10.61;61.39;101564.81;15715208;28;20048;-60
2022/02/11 09:44:32;;;;;;;1999.90;999.90;;;;;;;9.68;63.77;101572.50;15714688;28;20105;-61
2022/02/11 09:52:07;;;;;;;1999.90;999.90;;;;;;;10.09;63.18;101583.72;15757241;28;20048;-60
2022/02/11 09:59:41;;;;;;;1999.90;999.90;;;;;;;10.44;60.39;101585.00;15754279;28;20055;-62
2022/02/11 10:07:14;;;;;;;1999.90;999.90;;;;;;;12.06;56.79;101599.81;15753112;28;20148;-62
2022/02/11 10:14:46;;;;;;;1999.90;999.90;;;;;;;11.95;54.80;101606.81;15722095;28;20127;-61
2022/02/11 10:22:23;;;;;;;1999.90;999.90;;;;;;;11.10;58.15;101619.81;15716609;28;20044;-60
2022/02/11 10:29:56;;;;;;;1999.90;999.90;;;;;;;10.30;59.13;101606.47;15722598;28;20527;-59
2022/02/11 10:37:30;;;;;;;1999.90;999.90;;;;;;;9.33;61.64;101613.78;15767823;28;20124;-60
2022/02/11 10:45:27;;;;;;;1999.90;999.90;;;;;;;8.66;63.04;101627.84;15719528;28;20040;-62
2022/02/11 10:53:03;;;;;;;1999.90;999.90;;;;;;;9.01;62.09;101617.34;15727632;28;20142;-60
2022/02/11 11:00:35;;;;;;;1999.90;999.90;;;;;;;8.58;62.33;101611.81;15764149;28;20040;-60
2022/02/11 11:08:11;;;;;;;1999.90;999.90;;;;;;;10.51;58.03;101613.28;15737168;28;20044;-60
2022/02/11 11:15:46;;;;;;;1999.90;999.90;;;;;;;10.09;57.85;101614.38;15758930;28;20051;-61
2022/02/11 11:23:23;;;;;;;1999.90;999.90;;;;;;;8.87;61.54;101620.03;15777238;28;20075;-61
2022/02/11 11:30:58;;;;;;;1999.90;999.90;;;;;;;9.27;59.76;101623.34;15736807;28;20055;-60
2022/02/11 11:38:47;;;;;;;1999.90;999.90;;;;;;;9.47;60.23;101624.97;15776717;28;20044;-62
2022/02/11 11:46:28;;;;;;;1999.90;999.90;;;;;;;9.30;60.82;101625.53;15678915;28;20037;-61
2022/02/11 11:54:26;;;;;;;1999.90;999.90;;;;;;;8.94;61.45;101644.69;15729669;28;20050;-61
2022/02/11 12:02:01;;;;;;;1999.90;999.90;;;;;;;8.38;65.05;101654.59;15748757;28;20465;-61
2022/02/11 12:09:35;;;;;;;1999.90;999.90;;;;;;;8.50;65.29;101665.31;15717787;28;20044;-61
2022/02/11 12:17:09;;;;;;;1999.90;999.90;;;;;;;8.08;66.75;101660.47;15758410;28;20122;-62
2022/02/11 12:32:40;;;;;;;1999.90;999.90;;;;;;;7.47;67.95;101691.53;15693100;28;20051;-60
2022/02/11 12:40:18;;;;;;;1999.90;999.90;;;;;;;8.09;65.81;101703.81;15695761;28;20770;-61
2022/02/11 12:47:52;;;;;;;1999.90;999.90;;;;;;;7.17;68.16;101695.34;15722795;28;20083;-61
2022/02/11 12:55:25;;;;;;;1999.90;999.90;;;;;;;7.68;68.59;101704.16;15702103;28;20039;-60
2022/02/11 13:03:00;;;;;;;;;;;;;;;7.99;68.30;101728.91;15705991;28;20165;-60
2022/02/11 13:10:35;;;;;;;1999.90;999.90;;;;;;;7.88;68.02;101725.41;15706841;28;20023;-64
2022/02/11 13:18:10;;;;;;;1999.90;999.90;;;;;;;7.88;68.06;101741.25;15712988;28;20044;-62
2022/02/11 13:25:44;;;;;;;1999.90;999.90;;;;;;;8.27;66.15;101752.31;15728661;28;20056;-62
2022/02/11 13:33:22;;;;;;;1999.90;999.90;;;;;;;8.44;64.97;101765.78;15725337;28;20477;-62
2022/02/11 13:40:57;;;;;;;1999.90;999.90;;;;;;;10.75;59.96;101783.38;15680172;28;20048;-61
2022/02/11 13:48:31;;;;;;;1999.90;999.90;;;;;;;13.50;49.77;101794.25;15692436;28;20136;-62
2022/02/11 13:56:06;;;;;;;;;;;;;;;10.83;55.84;101801.38;15702692;28;20080;-61
2022/02/11 14:03:45;;;;;;;1999.90;999.90;;;;;;;10.95;57.19;101808.13;15707363;28;19920;-64
2022/02/11 14:11:20;;;;;;;1999.90;999.90;;;;;;;9.80;58.73;101823.75;15692726;28;20612;-61
2022/02/11 14:18:52;;;;;;;1999.90;999.90;;;;;;;8.94;61.24;101837.63;15694558;28;20040;-62
2022/02/11 14:26:25;;;;;;;1999.90;999.90;;;;;;;8.52;62.63;101832.75;15718668;28;20560;-63
2022/02/11 14:33:58;;;;;;;;;;;;;;;8.85;62.61;101858.88;15699415;28;20072;-60
2022/02/11 14:41:49;;;;;;;1999.90;999.90;;;;;;;8.27;63.76;101855.19;15712540;28;19928;-62
2022/02/11 14:49:26;;;;;;;1999.90;999.90;;;;;;;8.25;64.97;101880.53;15685944;28;20037;-63
2022/02/11 14:56:59;;;;;;;1999.90;999.90;;;;;;;8.84;63.86;101879.47;15696858;28;20334;-63
2022/02/11 15:04:31;;;;;;;1999.90;999.90;;;;;;;8.25;64.04;101879.69;15750585;28;20049;-62
2022/02/11 15:12:12;;;;;;;1999.90;999.90;;;;;;;8.25;64.47;101885.25;15709938;28;20534;-61
2022/02/11 15:19:44;;;;;;;1999.90;999.90;;;;;;;8.56;63.84;101906.19;15709469;28;20131;-62
2022/02/11 15:27:19;;;;;;;1999.90;999.90;;;;;;;8.06;64.84;101926.78;15682412;28;20044;-60
2022/02/11 15:34:52;;;;;;;1999.90;999.90;;;;;;;8.07;65.22;101948.75;15687267;28;20052;-61
2022/02/11 15:42:26;;;;;;;1999.90;999.90;;;;;;;7.77;66.51;101971.13;15721878;28;20086;-62
2022/02/11 15:50:00;;;;;;;1999.90;999.90;;;;;;;7.90;66.51;101987.19;15729682;28;20052;-62
2022/02/11 15:57:33;;;;;;;1999.90;999.90;;;;;;;7.81;66.13;102005.56;15729430;28;20489;-62
2022/02/11 16:05:10;;;;;;;1999.90;999.90;;;;;;;7.32;67.35;102030.41;15729841;28;20045;-61
2022/02/11 16:12:46;;;;;;;1999.90;999.90;;;;;;;7.35;66.94;102032.63;15730507;28;20041;-62
2022/02/11 16:20:27;;;;;;;1999.90;999.90;;;;;;;7.05;68.01;102053.72;15746163;28;20053;-61
2022/02/11 16:28:17;;;;;;;1999.90;999.90;;;;;;;6.97;68.60;102078.41;15729340;28;20045;-61
2022/02/11 16:35:49;;;;;;;1999.90;999.90;;;;;;;6.70;69.44;102098.91;15711009;28;20504;-58
2022/02/11 16:44:02;;;;;;;1999.90;999.90;;;;;;;6.85;70.67;102126.69;15705962;28;20139;-60
2022/02/11 16:52:06;;;;;;;1999.90;999.90;;;;;;;6.88;70.77;102156.69;15698162;28;20052;-63
2022/02/11 16:59:41;;;;;;;1999.90;999.90;;;;;;;6.73;71.36;102161.34;15723642;28;20069;-62
2022/02/11 17:07:18;;;;;;;1999.90;999.90;;;;;;;6.77;71.30;102171.59;15720480;28;20060;-62
2022/02/11 17:14:51;;;;;;;1999.90;999.90;;;;;;;6.70;71.94;102182.16;15696762;28;20037;-62
2022/02/11 17:22:25;;;;;;;1999.90;999.90;;;;;;;6.73;71.94;102180.75;15747755;28;20429;-55
2022/02/11 17:29:57;;;;;;;;;;;;;;;6.73;71.16;102214.88;15725864;28;20052;-62
2022/02/11 17:37:30;;;;;;;1999.90;999.90;;;;;;;6.69;71.49;102215.72;15704956;28;19920;-62
2022/02/11 17:45:03;;;;;;;1999.90;999.90;;;;;;;6.63;71.57;102234.25;15701433;28;20041;-61
2022/02/11 17:52:37;;;;;;;1999.90;999.90;;;;;;;6.92;69.64;102248.53;15729761;28;20075;-62
2022/02/11 18:00:10;;;;;;;;;;;;;;;6.89;69.05;102261.03;15719159;28;20071;-62
2022/02/11 18:07:46;;;;;;;1999.90;999.90;;;;;;;6.74;68.56;102274.81;15718044;28;20019;-62
2022/02/11 18:15:18;;;;;;;;;;;;;;;6.92;68.28;102287.41;15718579;28;20120;-62
2022/02/11 18:22:52;;;;;;;1999.90;999.90;;;;;;;6.71;69.08;102303.09;15726360;28;19932;-62
2022/02/11 18:30:24;;;;;;;1999.90;999.90;;;;;;;6.99;68.60;102317.69;15724406;28;20045;-61
2022/02/11 18:37:58;;;;;;;1999.90;999.90;;;;;;;7.02;68.67;102320.75;15725050;28;20048;-62
2022/02/11 18:45:30;;;;;;;1999.90;999.90;;;;;;;6.92;68.46;102343.75;15709127;28;20037;-63
2022/02/11 18:53:04;;;;;;;1999.90;999.90;;;;;;;6.85;69.41;102353.41;15713904;28;20044;-63
2022/02/11 19:00:38;;;;;;;1999.90;999.90;;;;;;;7.08;68.93;102379.88;15713429;28;20048;-63
2022/02/11 19:08:13;;;;;;;1999.90;999.90;;;;;;;6.60;69.91;102398.47;15721681;28;20052;-63
2022/02/11 19:15:45;;;;;;;1999.90;999.90;;;;;;;6.55;69.75;102410.34;15720894;28;20102;-63
2022/02/11 19:23:21;;;;;;;1999.90;999.90;;;;;;;6.65;68.11;102442.88;15704644;28;20056;-62
2022/02/11 19:30:58;;;;;;;1999.90;999.90;;;;;;;6.28;66.79;102465.00;15710130;28;20169;-65
2022/02/11 19:38:44;;;;;;;1999.90;999.90;;;;;;;6.14;65.98;102488.69;15709337;28;20044;-61
2022/02/11 19:46:16;;;;;;;1999.90;999.90;;;;;;;5.71;65.39;102504.22;15674520;28;20129;-61
2022/02/11 19:53:50;;;;;;;1999.90;999.90;;;;;;;5.75;64.40;102527.56;15701677;28;20048;-65
2022/02/11 20:01:22;;;;;;;1999.90;999.90;;;;;;;5.62;64.17;102566.69;15712411;28;20048;-61
2022/02/11 20:08:57;;;;;;;1999.90;999.90;;;;;;;5.59;62.91;102579.13;15714444;28;20067;-63
2022/02/11 20:16:30;;;;;;;1999.90;999.90;;;;;;;5.28;63.99;102610.19;15716879;28;20033;-63
2022/02/11 20:24:10;;;;;;;1999.90;999.90;;;;;;;5.25;62.84;102616.25;15705200;28;20044;-62
2022/02/11 20:32:02;;;;;;;1999.90;999.90;;;;;;;4.93;63.86;102636.16;15716689;28;20083;-62
2022/02/11 20:39:38;;;;;;;1999.90;999.90;;;;;;;5.04;63.40;102643.56;15698467;28;20039;-64
2022/02/11 20:47:11;;;;;;;1999.90;999.90;;;;;;;4.80;64.80;102659.44;15697464;28;20064;-62
2022/02/11 20:54:44;;;;;;;1999.90;999.90;;;;;;;4.57;65.03;102668.66;15728354;28;20049;-61
2022/02/11 21:02:17;;;;;;;1999.90;999.90;;;;;;;4.68;64.80;102699.28;15718191;28;20444;-61
2022/02/11 21:09:52;;;;;;;1999.90;999.90;;;;;;;4.58;65.24;102709.03;15723986;28;20098;-60
2022/02/11 21:17:24;;;;;;;1999.90;999.90;;;;;;;4.45;65.33;102708.47;15733922;28;20055;-61
2022/02/11 21:24:57;;;;;;;1999.90;999.90;;;;;;;4.51;64.93;102713.03;15740804;28;20117;-61
2022/02/11 21:32:29;;;;;;;;;;;;;;;4.43;65.29;102717.03;15722086;28;20052;-63
2022/02/11 21:40:04;;;;;;;1999.90;999.90;;;;;;;4.29;65.73;102726.66;15698043;28;20019;-62
2022/02/11 21:47:37;;;;;;;1999.90;999.90;;;;;;;4.17;66.26;102739.63;15711335;28;20040;-64
2022/02/11 21:55:11;;;;;;;1999.90;999.90;;;;;;;3.97;66.59;102732.56;15705568;28;20045;-57
2022/02/11 22:02:43;;;;;;;1999.90;999.90;;;;;;;3.95;65.88;102736.63;15705850;28;20477;-62
2022/02/11 22:10:16;;;;;;;1999.90;999.90;;;;;;;3.83;66.41;102749.59;15718503;28;20045;-61
2022/02/11 22:17:50;;;;;;;1999.90;999.90;;;;;;;3.63;67.03;102741.66;15693568;28;20052;-62
2022/02/11 22:25:23;;;;;;;1999.90;999.90;;;;;;;3.59;67.22;102762.53;15701410;28;20405;-63
2022/02/11 22:32:55;;;;;;;1999.90;999.90;;;;;;;3.34;67.35;102752.50;15714827;28;20044;-64
2022/02/11 22:40:31;;;;;;;1999.90;999.90;;;;;;;3.31;67.77;102744.69;15729107;28;20127;-61
2022/02/11 22:48:03;;;;;;;1999.90;999.90;;;;;;;3.10;67.91;102768.13;15713311;28;20405;-62
2022/02/11 22:55:37;;;;;;;1999.90;999.90;;;;;;;3.06;68.39;102779.88;15724647;28;20044;-63
2022/02/11 23:03:11;;;;;;;1999.90;999.90;;;;;;;3.01;67.74;102799.03;15737684;28;20048;-64
2022/02/11 23:10:44;;;;;;;1999.90;999.90;;;;;;;3.04;68.22;102815.13;15736686;28;20086;-60
2022/02/11 23:18:19;;;;;;;1999.90;999.90;;;;;;;2.91;68.99;102824.38;15728024;28;20166;-61
2022/02/11 23:25:54;;;;;;;1999.90;999.90;;;;;;;2.83;68.90;102821.97;15691539;28;20079;-60
2022/02/11 23:33:26;;;;;;;1999.90;999.90;;;;;;;2.77;69.53;102818.19;15748645;28;20049;-59
2022/02/11 23:41:00;;;;;;;1999.90;999.90;;;;;;;2.76;69.14;102815.66;15730107;28;20047;-62
2022/02/11 23:48:32;;;;;;;1999.90;999.90;;;;;;;2.68;69.07;102807.69;15729457;28;20058;-63
2022/02/11 23:56:06;;;;;;;1999.90;999.90;;;;;;;2.68;69.06;102811.28;15746580;28;20086;-61
